Аэропорт: Симферополь. Симферополь

ICAO: URFF

METAR:
2021-01-19 11:30:00
URFF 191130Z VRB01MPS 9999 BKN049 M08/M13 Q1020 R01/420295 NOSIG
METAR:
2021-01-19 07:56:00
TAF URFF 190756Z 1909/2009 28003MPS 9999 BKN020 SCT030CB TXM04/2008Z TNM11/1918Z FM191800 16003MPS 6000 -SHSN BKN016 SCT020CB